sensor_id;sensor_type;location;lat;lon;timestamp;pressure;altitude;pressure_sealevel;temperature;humidity
68994;BME280;56054;50.968;5.816;2022-09-09T00:02:27;100052.19;;;16.20;92.77
68994;BME280;56054;50.968;5.816;2022-09-09T00:06:50;100055.63;;;16.19;93.34
68994;BME280;56054;50.968;5.816;2022-09-09T00:09:27;100048.78;;;15.94;93.22
68994;BME280;56054;50.968;5.816;2022-09-09T00:12:42;100043.31;;;15.86;93.32
68994;BME280;56054;50.968;5.816;2022-09-09T00:16:00;100046.63;;;15.80;93.12
68994;BME280;56054;50.968;5.816;2022-09-09T00:22:27;100049.03;;;15.73;93.16
68994;BME280;56054;50.968;5.816;2022-09-09T00:29:08;100032.19;;;15.66;93.03
68994;BME280;56054;50.968;5.816;2022-09-09T00:32:18;100030.72;;;15.74;92.83
68994;BME280;56054;50.968;5.816;2022-09-09T00:35:37;100027.28;;;15.75;92.60
68994;BME280;56054;50.968;5.816;2022-09-09T00:38:49;100028.31;;;15.80;92.20
68994;BME280;56054;50.968;5.816;2022-09-09T00:42:17;100028.53;;;15.61;93.57
68994;BME280;56054;50.968;5.816;2022-09-09T00:45:56;100014.75;;;15.67;93.34
68994;BME280;56054;50.968;5.816;2022-09-09T00:56:12;100023.94;;;15.54;94.10
68994;BME280;56054;50.968;5.816;2022-09-09T00:59:50;100019.03;;;15.65;93.71
68994;BME280;56054;50.968;5.816;2022-09-09T01:06:31;100023.09;;;15.55;94.35
68994;BME280;56054;50.968;5.816;2022-09-09T01:12:51;100028.31;;;15.55;94.18
68994;BME280;56054;50.968;5.816;2022-09-09T01:16:01;100020.53;;;15.56;94.22
68994;BME280;56054;50.968;5.816;2022-09-09T01:19:19;100024.75;;;15.53;94.82
68994;BME280;56054;50.968;5.816;2022-09-09T01:26:21;100020.63;;;15.32;96.07
68994;BME280;56054;50.968;5.816;2022-09-09T01:29:33;100013.91;;;15.40;95.96
68994;BME280;56054;50.968;5.816;2022-09-09T01:32:44;100029.75;;;15.45;95.83
68994;BME280;56054;50.968;5.816;2022-09-09T01:35:55;100018.84;;;15.31;96.68
68994;BME280;56054;50.968;5.816;2022-09-09T01:39:11;100022.47;;;15.35;96.97
68994;BME280;56054;50.968;5.816;2022-09-09T01:42:21;100013.13;;;15.43;96.56
68994;BME280;56054;50.968;5.816;2022-09-09T01:45:29;100022.53;;;15.36;96.90
68994;BME280;56054;50.968;5.816;2022-09-09T01:48:37;100019.94;;;15.38;96.96
68994;BME280;56054;50.968;5.816;2022-09-09T01:51:46;100017.47;;;15.43;97.23
68994;BME280;56054;50.968;5.816;2022-09-09T01:55:05;100011.28;;;15.40;97.17
68994;BME280;56054;50.968;5.816;2022-09-09T02:08:45;100001.81;;;15.44;97.23
68994;BME280;56054;50.968;5.816;2022-09-09T02:12:08;100003.56;;;15.44;97.02
68994;BME280;56054;50.968;5.816;2022-09-09T02:15:42;99996.72;;;15.49;97.04
68994;BME280;56054;50.968;5.816;2022-09-09T02:19:01;99985.41;;;15.50;96.91
68994;BME280;56054;50.968;5.816;2022-09-09T02:22:24;99994.13;;;15.49;96.76
68994;BME280;56054;50.968;5.816;2022-09-09T02:25:33;99994.91;;;15.46;97.13
68994;BME280;56054;50.968;5.816;2022-09-09T02:28:53;100002.78;;;15.48;97.02
68994;BME280;56054;50.968;5.816;2022-09-09T02:32:05;99993.25;;;15.50;97.06
68994;BME280;56054;50.968;5.816;2022-09-09T02:35:17;100000.38;;;15.54;96.92
68994;BME280;56054;50.968;5.816;2022-09-09T02:38:26;99995.22;;;15.57;97.14
68994;BME280;56054;50.968;5.816;2022-09-09T02:41:41;99982.34;;;15.63;96.66
68994;BME280;56054;50.968;5.816;2022-09-09T02:44:48;99992.63;;;15.57;97.24
68994;BME280;56054;50.968;5.816;2022-09-09T02:48:14;99990.09;;;15.60;97.27
68994;BME280;56054;50.968;5.816;2022-09-09T02:54:38;99978.66;;;15.58;97.10
68994;BME280;56054;50.968;5.816;2022-09-09T02:57:48;99975.22;;;15.59;96.91
68994;BME280;56054;50.968;5.816;2022-09-09T03:00:56;99991.75;;;15.58;97.00
68994;BME280;56054;50.968;5.816;2022-09-09T03:04:04;99987.38;;;15.57;96.36
68994;BME280;56054;50.968;5.816;2022-09-09T03:07:13;99984.84;;;15.60;96.54
68994;BME280;56054;50.968;5.816;2022-09-09T03:10:22;99988.31;;;15.59;96.48
68994;BME280;56054;50.968;5.816;2022-09-09T03:13:29;99983.00;;;15.56;96.87
68994;BME280;56054;50.968;5.816;2022-09-09T03:16:36;99982.22;;;15.60;96.31
68994;BME280;56054;50.968;5.816;2022-09-09T03:19:42;99987.47;;;15.60;96.33
68994;BME280;56054;50.968;5.816;2022-09-09T03:22:50;99997.19;;;15.64;96.13
68994;BME280;56054;50.968;5.816;2022-09-09T03:25:58;99987.75;;;15.69;95.71
68994;BME280;56054;50.968;5.816;2022-09-09T03:29:13;99989.41;;;15.66;95.90
68994;BME280;56054;50.968;5.816;2022-09-09T03:32:21;99985.94;;;15.67;95.60
68994;BME280;56054;50.968;5.816;2022-09-09T03:35:30;100001.59;;;15.65;95.65
68994;BME280;56054;50.968;5.816;2022-09-09T03:38:38;99991.16;;;15.67;95.32
68994;BME280;56054;50.968;5.816;2022-09-09T03:41:46;100001.69;;;15.68;95.58
68994;BME280;56054;50.968;5.816;2022-09-09T03:44:54;99986.81;;;15.67;95.45
68994;BME280;56054;50.968;5.816;2022-09-09T03:48:02;99986.81;;;15.67;95.09
68994;BME280;56054;50.968;5.816;2022-09-09T03:51:10;99987.66;;;15.66;95.10
68994;BME280;56054;50.968;5.816;2022-09-09T03:54:17;99994.84;;;15.72;94.90
68994;BME280;56054;50.968;5.816;2022-09-09T03:57:24;99989.66;;;15.73;94.44
68994;BME280;56054;50.968;5.816;2022-09-09T04:00:39;99990.50;;;15.72;94.58
68994;BME280;56054;50.968;5.816;2022-09-09T04:03:46;99989.81;;;15.78;94.14
68994;BME280;56054;50.968;5.816;2022-09-09T04:06:53;99983.66;;;15.77;94.05
68994;BME280;56054;50.968;5.816;2022-09-09T04:09:59;99991.78;;;15.85;93.75
68994;BME280;56054;50.968;5.816;2022-09-09T04:13:07;99994.34;;;15.83;93.82
68994;BME280;56054;50.968;5.816;2022-09-09T04:16:14;99988.22;;;15.83;93.32
68994;BME280;56054;50.968;5.816;2022-09-09T04:19:21;99985.53;;;15.81;93.32
68994;BME280;56054;50.968;5.816;2022-09-09T04:22:28;99985.72;;;15.88;93.30
68994;BME280;56054;50.968;5.816;2022-09-09T04:25:35;99984.81;;;15.87;93.07
68994;BME280;56054;50.968;5.816;2022-09-09T04:28:42;99977.88;;;15.88;92.96
68994;BME280;56054;50.968;5.816;2022-09-09T04:31:52;99982.19;;;15.87;93.28
68994;BME280;56054;50.968;5.816;2022-09-09T04:35:00;99978.69;;;15.87;93.11
68994;BME280;56054;50.968;5.816;2022-09-09T04:38:07;99980.44;;;15.86;92.81
68994;BME280;56054;50.968;5.816;2022-09-09T04:41:15;99968.19;;;15.85;93.07
68994;BME280;56054;50.968;5.816;2022-09-09T04:44:26;99967.19;;;15.81;92.89
68994;BME280;56054;50.968;5.816;2022-09-09T04:47:33;99970.63;;;15.79;93.10
68994;BME280;56054;50.968;5.816;2022-09-09T04:50:40;99980.28;;;15.81;92.88
68994;BME280;56054;50.968;5.816;2022-09-09T04:53:48;99971.41;;;15.76;93.37
68994;BME280;56054;50.968;5.816;2022-09-09T04:56:55;99975.78;;;15.76;93.34
68994;BME280;56054;50.968;5.816;2022-09-09T05:00:03;99983.50;;;15.71;93.21
68994;BME280;56054;50.968;5.816;2022-09-09T05:03:12;99981.09;;;15.79;92.25
68994;BME280;56054;50.968;5.816;2022-09-09T05:06:21;99973.91;;;15.72;93.21
68994;BME280;56054;50.968;5.816;2022-09-09T05:09:32;99978.19;;;15.70;93.08
68994;BME280;56054;50.968;5.816;2022-09-09T05:12:39;99980.06;;;15.74;92.76
68994;BME280;56054;50.968;5.816;2022-09-09T05:15:52;99979.28;;;15.76;92.40
68994;BME280;56054;50.968;5.816;2022-09-09T05:19:01;99978.19;;;15.70;92.78
68994;BME280;56054;50.968;5.816;2022-09-09T05:22:37;99976.44;;;15.70;92.62
68994;BME280;56054;50.968;5.816;2022-09-09T05:25:54;99981.50;;;15.64;92.64
68994;BME280;56054;50.968;5.816;2022-09-09T05:29:03;99986.72;;;15.64;92.74
68994;BME280;56054;50.968;5.816;2022-09-09T05:32:10;99985.94;;;15.67;92.50
68994;BME280;56054;50.968;5.816;2022-09-09T05:35:20;99988.59;;;15.68;92.18
68994;BME280;56054;50.968;5.816;2022-09-09T05:38:27;99983.25;;;15.65;91.89
68994;BME280;56054;50.968;5.816;2022-09-09T05:41:34;99976.97;;;15.58;92.06
68994;BME280;56054;50.968;5.816;2022-09-09T05:44:42;99995.22;;;15.57;91.84
68994;BME280;56054;50.968;5.816;2022-09-09T05:47:52;99987.59;;;15.63;91.71
68994;BME280;56054;50.968;5.816;2022-09-09T05:51:00;99987.59;;;15.65;91.71
68994;BME280;56054;50.968;5.816;2022-09-09T05:54:07;100003.31;;;15.65;91.37
68994;BME280;56054;50.968;5.816;2022-09-09T05:57:17;99997.19;;;15.64;91.00
68994;BME280;56054;50.968;5.816;2022-09-09T06:01:00;99997.19;;;15.64;91.20
68994;BME280;56054;50.968;5.816;2022-09-09T06:04:09;99984.91;;;15.61;91.52
68994;BME280;56054;50.968;5.816;2022-09-09T06:07:17;99998.81;;;15.60;90.89
68994;BME280;56054;50.968;5.816;2022-09-09T06:10:26;99995.56;;;15.68;90.72
68994;BME280;56054;50.968;5.816;2022-09-09T06:13:35;99997.69;;;15.79;90.57
68994;BME280;56054;50.968;5.816;2022-09-09T06:24:25;100006.19;;;16.01;89.76
68994;BME280;56054;50.968;5.816;2022-09-09T06:27:52;100009.81;;;16.04;89.39
68994;BME280;56054;50.968;5.816;2022-09-09T06:31:12;99993.41;;;16.12;89.15
68994;BME280;56054;50.968;5.816;2022-09-09T06:38:09;99993.38;;;16.10;88.45
68994;BME280;56054;50.968;5.816;2022-09-09T06:41:33;99996.81;;;16.09;88.40
68994;BME280;56054;50.968;5.816;2022-09-09T06:44:53;99997.69;;;16.08;87.77
68994;BME280;56054;50.968;5.816;2022-09-09T06:48:31;99998.69;;;16.13;87.68
68994;BME280;56054;50.968;5.816;2022-09-09T06:52:12;99999.69;;;16.17;87.39
68994;BME280;56054;50.968;5.816;2022-09-09T07:07:57;99983.84;;;16.44;85.72
68994;BME280;56054;50.968;5.816;2022-09-09T07:11:22;99983.72;;;16.39;86.06
68994;BME280;56054;50.968;5.816;2022-09-09T07:26:57;99970.38;;;16.97;83.41
68994;BME280;56054;50.968;5.816;2022-09-09T07:37:36;99971.13;;;17.27;81.48
68994;BME280;56054;50.968;5.816;2022-09-09T07:41:16;99976.78;;;17.46;80.59
68994;BME280;56054;50.968;5.816;2022-09-09T07:44:54;99977.72;;;17.46;78.95
68994;BME280;56054;50.968;5.816;2022-09-09T07:48:01;99986.69;;;17.58;78.60
68994;BME280;56054;50.968;5.816;2022-09-09T07:51:11;99975.19;;;17.52;78.20
68994;BME280;56054;50.968;5.816;2022-09-09T07:54:19;99990.63;;;17.76;78.65
68994;BME280;56054;50.968;5.816;2022-09-09T07:57:28;100004.06;;;17.89;77.33
68994;BME280;56054;50.968;5.816;2022-09-09T08:00:36;99983.63;;;17.77;76.67
68994;BME280;56054;50.968;5.816;2022-09-09T08:03:44;99992.00;;;17.59;76.36
68994;BME280;56054;50.968;5.816;2022-09-09T08:06:55;99988.56;;;17.62;76.94
68994;BME280;56054;50.968;5.816;2022-09-09T08:10:06;99994.41;;;17.50;77.41
68994;BME280;56054;50.968;5.816;2022-09-09T08:13:15;99992.66;;;17.49;77.83
68994;BME280;56054;50.968;5.816;2022-09-09T08:16:24;99997.34;;;17.64;78.57
68994;BME280;56054;50.968;5.816;2022-09-09T08:19:33;100003.16;;;17.49;77.05
68994;BME280;56054;50.968;5.816;2022-09-09T08:22:45;100011.03;;;17.50;77.38
68994;BME280;56054;50.968;5.816;2022-09-09T08:25:53;100006.59;;;17.46;77.28
68994;BME280;56054;50.968;5.816;2022-09-09T08:29:01;100010.16;;;17.48;77.63
68994;BME280;56054;50.968;5.816;2022-09-09T08:32:09;100015.81;;;17.67;77.17
68994;BME280;56054;50.968;5.816;2022-09-09T08:35:16;100009.03;;;17.76;75.08
68994;BME280;56054;50.968;5.816;2022-09-09T08:38:25;100005.94;;;17.94;75.24
68994;BME280;56054;50.968;5.816;2022-09-09T08:45:35;100012.69;;;18.23;75.53
68994;BME280;56054;50.968;5.816;2022-09-09T08:48:57;100011.28;;;17.98;74.74
68994;BME280;56054;50.968;5.816;2022-09-09T08:52:16;100018.34;;;18.02;74.20
68994;BME280;56054;50.968;5.816;2022-09-09T08:58:52;100010.28;;;18.35;72.05
68994;BME280;56054;50.968;5.816;2022-09-09T09:02:18;100015.50;;;18.32;72.52
68994;BME280;56054;50.968;5.816;2022-09-09T09:05:37;100025.88;;;18.24;72.76
68994;BME280;56054;50.968;5.816;2022-09-09T09:12:16;100036.13;;;18.12;73.84
68994;BME280;56054;50.968;5.816;2022-09-09T09:15:25;100021.84;;;18.01;73.02
68994;BME280;56054;50.968;5.816;2022-09-09T09:18:33;100034.75;;;18.29;72.44
68994;BME280;56054;50.968;5.816;2022-09-09T09:21:44;100028.03;;;18.45;71.44
68994;BME280;56054;50.968;5.816;2022-09-09T09:24:56;100029.22;;;18.61;71.33
68994;BME280;56054;50.968;5.816;2022-09-09T09:31:23;100039.06;;;18.27;72.40
68994;BME280;56054;50.968;5.816;2022-09-09T09:34:31;100046.88;;;18.23;73.31
68994;BME280;56054;50.968;5.816;2022-09-09T09:37:40;100051.16;;;18.19;73.66
68994;BME280;56054;50.968;5.816;2022-09-09T09:40:58;100036.69;;;17.99;74.02
68994;BME280;56054;50.968;5.816;2022-09-09T09:44:39;100033.25;;;18.00;73.88
68994;BME280;56054;50.968;5.816;2022-09-09T09:48:00;100038.56;;;18.04;73.64
68994;BME280;56054;50.968;5.816;2022-09-09T09:51:14;100037.84;;;18.11;73.71
68994;BME280;56054;50.968;5.816;2022-09-09T09:54:28;100050.78;;;18.01;73.97
68994;BME280;56054;50.968;5.816;2022-09-09T09:57:37;100054.72;;;17.82;76.64
68994;BME280;56054;50.968;5.816;2022-09-09T10:00:49;100062.41;;;17.74;78.45
68994;BME280;56054;50.968;5.816;2022-09-09T10:04:03;100040.56;;;17.76;77.70
68994;BME280;56054;50.968;5.816;2022-09-09T10:07:22;100045.38;;;17.94;75.77
68994;BME280;56054;50.968;5.816;2022-09-09T10:14:19;100042.63;;;18.29;73.85
68994;BME280;56054;50.968;5.816;2022-09-09T10:21:42;100039.53;;;18.49;73.90
68994;BME280;56054;50.968;5.816;2022-09-09T12:27:16;100025.69;;;18.59;80.46
68994;BME280;56054;50.968;5.816;2022-09-09T12:31:08;100039.41;;;18.44;79.57
68994;BME280;56054;50.968;5.816;2022-09-09T13:18:07;100036.94;;;17.35;82.43
68994;BME280;56054;50.968;5.816;2022-09-09T13:21:19;100028.81;;;17.61;81.22
68994;BME280;56054;50.968;5.816;2022-09-09T13:32:25;100049.41;;;16.45;91.39
68994;BME280;56054;50.968;5.816;2022-09-09T13:39:17;100027.47;;;17.05;93.78
68994;BME280;56054;50.968;5.816;2022-09-09T13:42:29;100028.72;;;17.20;93.48
68994;BME280;56054;50.968;5.816;2022-09-09T13:45:40;100018.09;;;17.51;92.85
68994;BME280;56054;50.968;5.816;2022-09-09T13:49:00;100018.91;;;17.85;92.09
68994;BME280;56054;50.968;5.816;2022-09-09T13:52:32;100015.81;;;18.05;92.85
68994;BME280;56054;50.968;5.816;2022-09-09T13:55:46;100010.09;;;18.26;91.68
68994;BME280;56054;50.968;5.816;2022-09-09T14:02:41;100001.88;;;18.53;92.20
68994;BME280;56054;50.968;5.816;2022-09-09T14:06:18;100004.72;;;18.65;91.08
68994;BME280;56054;50.968;5.816;2022-09-09T14:09:33;100001.25;;;18.66;92.01
68994;BME280;56054;50.968;5.816;2022-09-09T14:13:05;100004.03;;;18.74;90.30
68994;BME280;56054;50.968;5.816;2022-09-09T14:16:50;99989.72;;;18.59;88.10
68994;BME280;56054;50.968;5.816;2022-09-09T15:04:40;99987.31;;;19.20;79.48
68994;BME280;56054;50.968;5.816;2022-09-09T15:08:56;99981.88;;;19.10;79.08
68994;BME280;56054;50.968;5.816;2022-09-09T15:34:49;99991.59;;;19.69;77.58
68994;BME280;56054;50.968;5.816;2022-09-09T15:38:21;99981.75;;;19.60;73.07
68994;BME280;56054;50.968;5.816;2022-09-09T20:43:15;100221.94;;;16.84;87.79
68994;BME280;56054;50.968;5.816;2022-09-09T20:46:54;100212.47;;;16.89;87.92
68994;BME280;56054;50.968;5.816;2022-09-09T20:50:28;100221.13;;;16.85;87.52
68994;BME280;56054;50.968;5.816;2022-09-09T20:54:35;100215.75;;;16.82;87.00
68994;BME280;56054;50.968;5.816;2022-09-09T20:58:07;100219.19;;;16.80;86.82
68994;BME280;56054;50.968;5.816;2022-09-09T21:01:31;100231.16;;;16.72;86.63
68994;BME280;56054;50.968;5.816;2022-09-09T21:08:01;100226.13;;;16.51;88.34
68994;BME280;56054;50.968;5.816;2022-09-09T21:15:11;100219.44;;;16.32;90.99
68994;BME280;56054;50.968;5.816;2022-09-09T21:18:21;100222.72;;;16.24;91.67
68994;BME280;56054;50.968;5.816;2022-09-09T21:22:01;100223.34;;;16.17;90.11
68994;BME280;56054;50.968;5.816;2022-09-09T21:25:43;100222.59;;;16.21;89.57
68994;BME280;56054;50.968;5.816;2022-09-09T21:32:38;100224.72;;;16.06;88.79
68994;BME280;56054;50.968;5.816;2022-09-09T21:35:47;100224.56;;;16.01;88.51
68994;BME280;56054;50.968;5.816;2022-09-09T21:39:20;100226.31;;;16.01;88.30
68994;BME280;56054;50.968;5.816;2022-09-09T21:45:44;100229.81;;;16.01;89.28
68994;BME280;56054;50.968;5.816;2022-09-09T21:49:17;100237.16;;;15.86;90.40
68994;BME280;56054;50.968;5.816;2022-09-09T21:56:03;100237.59;;;15.73;89.60
68994;BME280;56054;50.968;5.816;2022-09-09T21:59:26;100231.63;;;15.53;90.88
68994;BME280;56054;50.968;5.816;2022-09-09T22:05:57;100228.00;;;15.49;91.79
68994;BME280;56054;50.968;5.816;2022-09-09T22:09:11;100227.84;;;15.45;91.97
68994;BME280;56054;50.968;5.816;2022-09-09T22:12:31;100218.84;;;15.36;93.24
68994;BME280;56054;50.968;5.816;2022-09-09T22:23:49;100226.38;;;15.27;93.70
68994;BME280;56054;50.968;5.816;2022-09-09T22:27:34;100219.13;;;15.20;93.52
68994;BME280;56054;50.968;5.816;2022-09-09T22:31:05;100228.38;;;15.34;93.05
68994;BME280;56054;50.968;5.816;2022-09-09T22:34:14;100221.13;;;15.27;92.96
68994;BME280;56054;50.968;5.816;2022-09-09T23:12:35;100223.13;;;15.34;95.14
68994;BME280;56054;50.968;5.816;2022-09-09T23:16:10;100225.91;;;15.39;94.51
68994;BME280;56054;50.968;5.816;2022-09-09T23:35:12;100233.09;;;15.45;94.38
